sensor_id;sensor_type;location;lat;lon;timestamp;pressure;altitude;pressure_sealevel;temperature;humidity
68871;BME280;55906;52.278;6.808;2022-08-01T00:01:12;101408.91;;;20.18;79.14
68871;BME280;55906;52.278;6.808;2022-08-01T00:03:39;101403.56;;;20.16;79.24
68871;BME280;55906;52.278;6.808;2022-08-01T00:06:08;101415.16;;;20.15;79.62
68871;BME280;55906;52.278;6.808;2022-08-01T00:08:36;101416.03;;;20.17;79.10
68871;BME280;55906;52.278;6.808;2022-08-01T00:11:02;101418.75;;;20.09;79.70
68871;BME280;55906;52.278;6.808;2022-08-01T00:13:29;101415.19;;;20.07;79.74
68871;BME280;55906;52.278;6.808;2022-08-01T00:15:55;101417.88;;;20.06;79.84
68871;BME280;55906;52.278;6.808;2022-08-01T00:18:22;101416.97;;;20.05;79.59
68871;BME280;55906;52.278;6.808;2022-08-01T00:20:48;101415.19;;;20.04;79.92
68871;BME280;55906;52.278;6.808;2022-08-01T00:23:15;101415.22;;;20.01;80.18
68871;BME280;55906;52.278;6.808;2022-08-01T00:25:43;101413.44;;;20.02;80.33
68871;BME280;55906;52.278;6.808;2022-08-01T00:28:10;101412.56;;;19.98;80.62
68871;BME280;55906;52.278;6.808;2022-08-01T00:30:36;101417.91;;;19.98;80.33
68871;BME280;55906;52.278;6.808;2022-08-01T00:33:03;101414.34;;;19.98;80.35
68871;BME280;55906;52.278;6.808;2022-08-01T00:35:30;101417.91;;;19.97;80.39
68871;BME280;55906;52.278;6.808;2022-08-01T00:37:56;101420.59;;;19.94;80.54
68871;BME280;55906;52.278;6.808;2022-08-01T00:40:23;101417.03;;;19.92;81.04
68871;BME280;55906;52.278;6.808;2022-08-01T00:42:51;101417.94;;;19.88;80.83
68871;BME280;55906;52.278;6.808;2022-08-01T00:45:17;101417.94;;;19.88;80.94
68871;BME280;55906;52.278;6.808;2022-08-01T00:47:44;101414.38;;;19.86;80.80
68871;BME280;55906;52.278;6.808;2022-08-01T00:50:11;101412.63;;;19.81;81.25
68871;BME280;55906;52.278;6.808;2022-08-01T00:52:39;101417.06;;;19.83;80.78
68871;BME280;55906;52.278;6.808;2022-08-01T00:55:07;101416.19;;;19.82;81.14
68871;BME280;55906;52.278;6.808;2022-08-01T00:57:34;101418.84;;;19.82;80.99
68871;BME280;55906;52.278;6.808;2022-08-01T01:00:04;101414.41;;;19.83;80.94
68871;BME280;55906;52.278;6.808;2022-08-01T01:02:31;101419.75;;;19.79;81.53
68871;BME280;55906;52.278;6.808;2022-08-01T01:04:58;101415.31;;;19.75;81.80
68871;BME280;55906;52.278;6.808;2022-08-01T01:07:30;101423.34;;;19.72;81.84
68871;BME280;55906;52.278;6.808;2022-08-01T01:10:02;101419.78;;;19.72;81.86
68871;BME280;55906;52.278;6.808;2022-08-01T01:12:33;101418.00;;;19.72;81.37
68871;BME280;55906;52.278;6.808;2022-08-01T01:15:06;101414.44;;;19.70;82.21
68871;BME280;55906;52.278;6.808;2022-08-01T01:17:38;101418.00;;;19.71;81.65
68871;BME280;55906;52.278;6.808;2022-08-01T01:20:06;101418.00;;;19.66;81.87
68871;BME280;55906;52.278;6.808;2022-08-01T01:22:47;101422.47;;;19.60;83.08
68871;BME280;55906;52.278;6.808;2022-08-01T01:25:45;101420.69;;;19.56;83.50
68871;BME280;55906;52.278;6.808;2022-08-01T01:28:21;101426.00;;;19.51;83.08
68871;BME280;55906;52.278;6.808;2022-08-01T01:30:55;101415.31;;;19.49;83.04
68871;BME280;55906;52.278;6.808;2022-08-01T01:33:25;101428.66;;;19.46;83.65
68871;BME280;55906;52.278;6.808;2022-08-01T01:35:58;101417.09;;;19.46;83.77
68871;BME280;55906;52.278;6.808;2022-08-01T01:38:28;101420.66;;;19.45;83.93
68871;BME280;55906;52.278;6.808;2022-08-01T01:40:56;101419.75;;;19.46;83.51
68871;BME280;55906;52.278;6.808;2022-08-01T01:43:24;101426.00;;;19.46;83.63
68871;BME280;55906;52.278;6.808;2022-08-01T01:45:53;101424.22;;;19.45;84.13
68871;BME280;55906;52.278;6.808;2022-08-01T01:48:21;101423.31;;;19.45;84.32
68871;BME280;55906;52.278;6.808;2022-08-01T01:50:50;101424.22;;;19.41;84.65
68871;BME280;55906;52.278;6.808;2022-08-01T01:53:19;101416.22;;;19.38;84.94
68871;BME280;55906;52.278;6.808;2022-08-01T01:59:10;101419.78;;;19.37;85.11
68871;BME280;55906;52.278;6.808;2022-08-01T02:01:42;101431.34;;;19.31;85.56
68871;BME280;55906;52.278;6.808;2022-08-01T02:04:10;101425.13;;;19.29;85.39
68871;BME280;55906;52.278;6.808;2022-08-01T02:06:38;101427.78;;;19.28;85.48
68871;BME280;55906;52.278;6.808;2022-08-01T02:09:07;101431.34;;;19.25;86.20
68871;BME280;55906;52.278;6.808;2022-08-01T02:11:35;101435.78;;;19.31;85.32
68871;BME280;55906;52.278;6.808;2022-08-01T02:14:03;101434.91;;;19.30;85.69
68871;BME280;55906;52.278;6.808;2022-08-01T02:16:34;101434.03;;;19.30;85.50
68871;BME280;55906;52.278;6.808;2022-08-01T02:19:03;101437.56;;;19.27;85.87
68871;BME280;55906;52.278;6.808;2022-08-01T02:21:33;101432.25;;;19.29;85.20
68871;BME280;55906;52.278;6.808;2022-08-01T02:24:05;101443.81;;;19.29;85.42
68871;BME280;55906;52.278;6.808;2022-08-01T02:26:38;101428.69;;;19.28;85.61
68871;BME280;55906;52.278;6.808;2022-08-01T02:29:10;101434.03;;;19.30;85.32
68871;BME280;55906;52.278;6.808;2022-08-01T02:31:39;101437.56;;;19.29;85.22
68871;BME280;55906;52.278;6.808;2022-08-01T02:34:13;101436.69;;;19.31;85.32
68871;BME280;55906;52.278;6.808;2022-08-01T02:36:43;101438.47;;;19.31;85.42
68871;BME280;55906;52.278;6.808;2022-08-01T02:39:13;101445.59;;;19.30;85.51
68871;BME280;55906;52.278;6.808;2022-08-01T02:41:43;101445.59;;;19.32;85.07
68871;BME280;55906;52.278;6.808;2022-08-01T02:44:16;101441.13;;;19.31;85.34
68871;BME280;55906;52.278;6.808;2022-08-01T02:46:49;101450.91;;;19.29;85.52
68871;BME280;55906;52.278;6.808;2022-08-01T02:49:20;101434.03;;;19.28;85.36
68871;BME280;55906;52.278;6.808;2022-08-01T02:51:48;101438.47;;;19.28;85.16
68871;BME280;55906;52.278;6.808;2022-08-01T02:54:16;101437.56;;;19.29;85.19
68871;BME280;55906;52.278;6.808;2022-08-01T02:56:44;101439.34;;;19.25;85.60
68871;BME280;55906;52.278;6.808;2022-08-01T02:59:16;101441.13;;;19.28;85.38
68871;BME280;55906;52.278;6.808;2022-08-01T03:01:44;101429.56;;;19.26;85.39
68871;BME280;55906;52.278;6.808;2022-08-01T03:04:12;101437.56;;;19.26;85.35
68871;BME280;55906;52.278;6.808;2022-08-01T03:06:41;101443.81;;;19.23;85.77
68871;BME280;55906;52.278;6.808;2022-08-01T03:09:08;101441.13;;;19.22;85.63
68871;BME280;55906;52.278;6.808;2022-08-01T03:11:39;101441.13;;;19.22;85.57
68871;BME280;55906;52.278;6.808;2022-08-01T03:14:09;101450.03;;;19.25;85.38
68871;BME280;55906;52.278;6.808;2022-08-01T03:16:38;101446.47;;;19.25;85.49
68871;BME280;55906;52.278;6.808;2022-08-01T03:19:07;101456.25;;;19.23;85.85
68871;BME280;55906;52.278;6.808;2022-08-01T03:21:41;101447.38;;;19.25;85.32
68871;BME280;55906;52.278;6.808;2022-08-01T03:24:10;101454.47;;;19.26;85.40
68871;BME280;55906;52.278;6.808;2022-08-01T03:26:38;101449.13;;;19.25;85.56
68871;BME280;55906;52.278;6.808;2022-08-01T03:29:08;101458.03;;;19.27;85.21
68871;BME280;55906;52.278;6.808;2022-08-01T03:31:37;101456.25;;;19.27;85.53
68871;BME280;55906;52.278;6.808;2022-08-01T03:34:08;101455.38;;;19.30;85.38
68871;BME280;55906;52.278;6.808;2022-08-01T03:36:42;101460.69;;;19.27;85.66
68871;BME280;55906;52.278;6.808;2022-08-01T03:39:10;101464.25;;;19.29;85.37
68871;BME280;55906;52.278;6.808;2022-08-01T03:41:40;101456.25;;;19.30;85.19
68871;BME280;55906;52.278;6.808;2022-08-01T03:44:11;101456.25;;;19.32;85.39
68871;BME280;55906;52.278;6.808;2022-08-01T03:46:42;101458.91;;;19.33;85.42
68871;BME280;55906;52.278;6.808;2022-08-01T03:49:11;101449.13;;;19.32;nan
68871;BME280;55906;52.278;6.808;2022-08-01T03:51:40;101459.81;;;19.34;85.14
68871;BME280;55906;52.278;6.808;2022-08-01T03:54:08;101455.38;;;19.36;85.19
68871;BME280;55906;52.278;6.808;2022-08-01T03:56:36;101461.59;;;19.35;85.19
68871;BME280;55906;52.278;6.808;2022-08-01T03:59:04;101458.03;;;19.34;84.98
68871;BME280;55906;52.278;6.808;2022-08-01T04:01:31;101452.69;;;19.37;85.38
68871;BME280;55906;52.278;6.808;2022-08-01T04:03:59;101464.25;;;19.41;84.84
68871;BME280;55906;52.278;6.808;2022-08-01T04:06:26;101458.91;;;19.38;85.14
68871;BME280;55906;52.278;6.808;2022-08-01T04:08:54;101459.81;;;19.41;85.02
68871;BME280;55906;52.278;6.808;2022-08-01T04:11:23;101457.13;;;19.43;85.09
68871;BME280;55906;52.278;6.808;2022-08-01T04:13:51;101457.13;;;19.46;84.82
68871;BME280;55906;52.278;6.808;2022-08-01T04:16:18;101465.13;;;19.46;84.91
68871;BME280;55906;52.278;6.808;2022-08-01T04:18:45;101457.13;;;19.49;84.75
68871;BME280;55906;52.278;6.808;2022-08-01T04:21:12;101466.09;;;19.53;84.53
68871;BME280;55906;52.278;6.808;2022-08-01T04:23:41;101465.19;;;19.54;84.62
68871;BME280;55906;52.278;6.808;2022-08-01T04:26:10;101468.75;;;19.57;84.40
68871;BME280;55906;52.278;6.808;2022-08-01T04:28:39;101476.75;;;19.60;84.31
68871;BME280;55906;52.278;6.808;2022-08-01T04:31:09;101482.09;;;19.60;84.17
68871;BME280;55906;52.278;6.808;2022-08-01T04:33:38;101480.31;;;19.61;84.43
68871;BME280;55906;52.278;6.808;2022-08-01T04:36:10;101479.41;;;19.65;84.40
68871;BME280;55906;52.278;6.808;2022-08-01T04:38:37;101486.53;;;19.64;84.52
68871;BME280;55906;52.278;6.808;2022-08-01T04:41:06;101485.63;;;19.67;84.04
68871;BME280;55906;52.278;6.808;2022-08-01T04:43:34;101492.75;;;19.69;84.39
68871;BME280;55906;52.278;6.808;2022-08-01T04:46:02;101488.31;;;19.68;84.31
68871;BME280;55906;52.278;6.808;2022-08-01T04:48:31;101492.75;;;19.69;84.00
68871;BME280;55906;52.278;6.808;2022-08-01T04:50:59;101493.66;;;19.70;83.88
68871;BME280;55906;52.278;6.808;2022-08-01T04:53:25;101499.88;;;19.69;84.10
68871;BME280;55906;52.278;6.808;2022-08-01T04:55:53;101499.88;;;19.67;84.54
68871;BME280;55906;52.278;6.808;2022-08-01T04:58:20;101505.22;;;19.69;84.11
68871;BME280;55906;52.278;6.808;2022-08-01T05:00:48;101501.66;;;19.65;84.57
68871;BME280;55906;52.278;6.808;2022-08-01T05:03:15;101507.00;;;19.65;84.37
68871;BME280;55906;52.278;6.808;2022-08-01T05:05:42;101499.91;;;19.55;84.52
68871;BME280;55906;52.278;6.808;2022-08-01T05:08:08;101507.00;;;19.56;84.53
68871;BME280;55906;52.278;6.808;2022-08-01T05:10:35;101503.44;;;19.57;84.33
68871;BME280;55906;52.278;6.808;2022-08-01T05:13:01;101506.13;;;19.53;84.40
68871;BME280;55906;52.278;6.808;2022-08-01T05:15:28;101508.72;;;19.48;84.85
68871;BME280;55906;52.278;6.808;2022-08-01T05:17:56;101513.19;;;19.44;85.03
68871;BME280;55906;52.278;6.808;2022-08-01T05:20:23;101510.50;;;19.43;84.67
68871;BME280;55906;52.278;6.808;2022-08-01T05:22:50;101519.41;;;19.46;84.57
68871;BME280;55906;52.278;6.808;2022-08-01T05:25:16;101514.06;;;19.42;85.11
68871;BME280;55906;52.278;6.808;2022-08-01T05:27:43;101520.28;;;19.45;84.40
68871;BME280;55906;52.278;6.808;2022-08-01T05:30:10;101519.47;;;19.53;84.52
68871;BME280;55906;52.278;6.808;2022-08-01T05:32:37;101519.41;;;19.43;84.97
68871;BME280;55906;52.278;6.808;2022-08-01T05:35:07;101521.25;;;19.52;84.55
68871;BME280;55906;52.278;6.808;2022-08-01T05:37:34;101518.56;;;19.60;84.51
68871;BME280;55906;52.278;6.808;2022-08-01T05:40:00;101519.47;;;19.59;84.73
68871;BME280;55906;52.278;6.808;2022-08-01T05:42:27;101524.81;;;19.66;83.89
68871;BME280;55906;52.278;6.808;2022-08-01T05:44:54;101525.69;;;19.68;83.93
68871;BME280;55906;52.278;6.808;2022-08-01T05:47:20;101522.13;;;19.71;83.96
68871;BME280;55906;52.278;6.808;2022-08-01T05:49:47;101530.13;;;19.77;83.83
68871;BME280;55906;52.278;6.808;2022-08-01T05:52:15;101524.78;;;19.81;83.66
68871;BME280;55906;52.278;6.808;2022-08-01T05:54:42;101528.31;;;19.90;83.50
68871;BME280;55906;52.278;6.808;2022-08-01T05:57:08;101530.06;;;20.03;83.32
68871;BME280;55906;52.278;6.808;2022-08-01T05:59:35;101532.72;;;20.13;82.75
68871;BME280;55906;52.278;6.808;2022-08-01T06:02:01;101529.13;;;20.21;82.55
68871;BME280;55906;52.278;6.808;2022-08-01T06:04:28;101535.34;;;20.30;82.59
68871;BME280;55906;52.278;6.808;2022-08-01T06:06:55;101538.88;;;20.34;81.85
68871;BME280;55906;52.278;6.808;2022-08-01T06:09:23;101535.34;;;20.39;81.97
68871;BME280;55906;52.278;6.808;2022-08-01T06:11:52;101536.22;;;20.40;81.89
68871;BME280;55906;52.278;6.808;2022-08-01T06:14:19;101545.13;;;20.45;81.82
68871;BME280;55906;52.278;6.808;2022-08-01T06:16:45;101542.47;;;20.40;81.36
68871;BME280;55906;52.278;6.808;2022-08-01T06:19:12;101542.50;;;20.24;81.01
68871;BME280;55906;52.278;6.808;2022-08-01T06:21:38;101542.47;;;20.28;82.11
68871;BME280;55906;52.278;6.808;2022-08-01T06:24:05;101538.91;;;20.29;81.55
68871;BME280;55906;52.278;6.808;2022-08-01T06:26:34;101547.81;;;20.25;81.78
68871;BME280;55906;52.278;6.808;2022-08-01T06:29:02;101548.72;;;20.26;81.51
68871;BME280;55906;52.278;6.808;2022-08-01T06:31:28;101543.34;;;20.33;81.49
68871;BME280;55906;52.278;6.808;2022-08-01T06:33:56;101546.91;;;20.38;81.07
68871;BME280;55906;52.278;6.808;2022-08-01T06:36:22;101549.56;;;20.38;81.47
68871;BME280;55906;52.278;6.808;2022-08-01T06:38:50;101550.50;;;20.39;81.50
68871;BME280;55906;52.278;6.808;2022-08-01T06:41:17;101560.28;;;20.35;81.05
68871;BME280;55906;52.278;6.808;2022-08-01T06:43:45;101562.94;;;20.35;80.71
68871;BME280;55906;52.278;6.808;2022-08-01T06:46:11;101570.09;;;20.30;80.95
68871;BME280;55906;52.278;6.808;2022-08-01T06:48:38;101573.66;;;20.22;81.23
68871;BME280;55906;52.278;6.808;2022-08-01T06:51:05;101570.09;;;20.29;80.72
68871;BME280;55906;52.278;6.808;2022-08-01T06:53:36;101570.97;;;20.35;80.50
68871;BME280;55906;52.278;6.808;2022-08-01T06:56:04;101574.53;;;20.33;80.85
68871;BME280;55906;52.278;6.808;2022-08-01T06:58:31;101575.44;;;20.41;80.74
68871;BME280;55906;52.278;6.808;2022-08-01T07:01:01;101568.28;;;20.43;80.02
68871;BME280;55906;52.278;6.808;2022-08-01T07:03:31;101577.16;;;20.53;80.22
68871;BME280;55906;52.278;6.808;2022-08-01T07:06:00;101574.50;;;20.56;79.79
68871;BME280;55906;52.278;6.808;2022-08-01T07:08:27;101583.44;;;20.42;80.07
68871;BME280;55906;52.278;6.808;2022-08-01T07:10:53;101581.66;;;20.44;80.00
68871;BME280;55906;52.278;6.808;2022-08-01T07:13:21;101579.88;;;20.48;79.58
68871;BME280;55906;52.278;6.808;2022-08-01T07:15:50;101586.09;;;20.47;79.60
68871;BME280;55906;52.278;6.808;2022-08-01T07:18:18;101577.16;;;20.54;79.15
68871;BME280;55906;52.278;6.808;2022-08-01T07:20:45;101585.16;;;20.59;78.79
68871;BME280;55906;52.278;6.808;2022-08-01T07:23:12;101579.84;;;20.50;77.61
68871;BME280;55906;52.278;6.808;2022-08-01T07:25:38;101584.31;;;20.46;79.22
68871;BME280;55906;52.278;6.808;2022-08-01T07:28:05;101586.97;;;20.57;78.62
68871;BME280;55906;52.278;6.808;2022-08-01T07:30:32;101581.59;;;20.60;78.59
68871;BME280;55906;52.278;6.808;2022-08-01T07:32:59;101593.16;;;20.69;78.19
68871;BME280;55906;52.278;6.808;2022-08-01T07:35:27;101595.81;;;20.71;78.04
68871;BME280;55906;52.278;6.808;2022-08-01T07:37:53;101590.44;;;20.77;77.36
68871;BME280;55906;52.278;6.808;2022-08-01T07:40:20;101594.88;;;20.87;77.16
68871;BME280;55906;52.278;6.808;2022-08-01T07:42:47;101603.75;;;20.95;77.02
68871;BME280;55906;52.278;6.808;2022-08-01T07:45:14;101610.91;;;20.92;76.89
68871;BME280;55906;52.278;6.808;2022-08-01T07:47:41;101607.31;;;20.99;76.73
68871;BME280;55906;52.278;6.808;2022-08-01T07:50:08;101608.19;;;20.99;75.78
68871;BME280;55906;52.278;6.808;2022-08-01T07:52:36;101610.94;;;20.76;74.46
68871;BME280;55906;52.278;6.808;2022-08-01T07:55:03;101613.63;;;20.73;75.75
68871;BME280;55906;52.278;6.808;2022-08-01T07:57:30;101619.88;;;20.72;75.87
68871;BME280;55906;52.278;6.808;2022-08-01T07:59:57;101622.53;;;20.85;75.75
68871;BME280;55906;52.278;6.808;2022-08-01T08:02:24;101620.72;;;20.94;75.70
68871;BME280;55906;52.278;6.808;2022-08-01T08:04:50;101630.50;;;20.98;75.37
68871;BME280;55906;52.278;6.808;2022-08-01T08:07:17;101628.69;;;21.06;75.21
68871;BME280;55906;52.278;6.808;2022-08-01T08:09:45;101631.31;;;21.13;74.59
68871;BME280;55906;52.278;6.808;2022-08-01T08:12:11;101633.13;;;21.09;74.23
68871;BME280;55906;52.278;6.808;2022-08-01T08:14:38;101628.69;;;21.05;75.01
68871;BME280;55906;52.278;6.808;2022-08-01T08:17:05;101635.00;;;20.89;74.18
68871;BME280;55906;52.278;6.808;2022-08-01T08:19:32;101637.66;;;20.93;74.05
68871;BME280;55906;52.278;6.808;2022-08-01T08:21:59;101641.16;;;21.06;74.12
68871;BME280;55906;52.278;6.808;2022-08-01T08:24:26;101640.25;;;21.12;73.15
68871;BME280;55906;52.278;6.808;2022-08-01T08:26:56;101643.75;;;21.21;71.72
68871;BME280;55906;52.278;6.808;2022-08-01T08:29:24;101646.38;;;21.36;72.79
68871;BME280;55906;52.278;6.808;2022-08-01T08:31:52;101651.69;;;21.46;72.55
68871;BME280;55906;52.278;6.808;2022-08-01T08:34:19;101654.19;;;21.71;71.50
68871;BME280;55906;52.278;6.808;2022-08-01T08:36:46;101661.25;;;21.82;71.35
68871;BME280;55906;52.278;6.808;2022-08-01T08:39:13;101657.66;;;21.83;71.00
68871;BME280;55906;52.278;6.808;2022-08-01T08:41:40;101663.78;;;21.98;70.60
68871;BME280;55906;52.278;6.808;2022-08-01T08:44:09;101656.59;;;22.07;69.28
68871;BME280;55906;52.278;6.808;2022-08-01T08:46:40;101649.38;;;22.19;69.27
68871;BME280;55906;52.278;6.808;2022-08-01T08:49:08;101653.84;;;22.20;68.85
68871;BME280;55906;52.278;6.808;2022-08-01T08:51:38;101662.63;;;22.34;67.51
68871;BME280;55906;52.278;6.808;2022-08-01T08:54:06;101667.03;;;22.42;68.09
68871;BME280;55906;52.278;6.808;2022-08-01T08:56:34;101665.00;;;22.63;67.53
68871;BME280;55906;52.278;6.808;2022-08-01T08:59:02;101670.00;;;22.97;66.62
68871;BME280;55906;52.278;6.808;2022-08-01T09:01:31;101670.97;;;22.91;65.79
68871;BME280;55906;52.278;6.808;2022-08-01T09:04:00;101669.09;;;22.98;65.70
68871;BME280;55906;52.278;6.808;2022-08-01T09:06:27;101669.03;;;23.03;64.86
68871;BME280;55906;52.278;6.808;2022-08-01T09:08:55;101675.31;;;23.02;65.21
68871;BME280;55906;52.278;6.808;2022-08-01T09:11:21;101678.16;;;22.89;63.57
68871;BME280;55906;52.278;6.808;2022-08-01T09:14:02;101683.69;;;22.71;61.73
68871;BME280;55906;52.278;6.808;2022-08-01T09:16:32;101683.47;;;22.92;63.20
68871;BME280;55906;52.278;6.808;2022-08-01T09:19:10;101681.97;;;23.41;62.75
68871;BME280;55906;52.278;6.808;2022-08-01T09:21:37;101687.44;;;23.33;62.35
68871;BME280;55906;52.278;6.808;2022-08-01T09:24:12;101687.31;;;23.44;63.05
68871;BME280;55906;52.278;6.808;2022-08-01T09:26:39;101690.78;;;23.52;60.23
68871;BME280;55906;52.278;6.808;2022-08-01T09:29:07;101694.53;;;24.00;61.18
68871;BME280;55906;52.278;6.808;2022-08-01T09:31:42;101690.28;;;24.41;57.95
68871;BME280;55906;52.278;6.808;2022-08-01T09:34:09;101699.34;;;24.84;60.06
68871;BME280;55906;52.278;6.808;2022-08-01T09:36:49;101708.25;;;24.88;57.60
68871;BME280;55906;52.278;6.808;2022-08-01T09:39:19;101709.00;;;24.98;59.30
68871;BME280;55906;52.278;6.808;2022-08-01T09:41:46;101702.06;;;24.83;60.01
68871;BME280;55906;52.278;6.808;2022-08-01T09:44:14;101705.91;;;24.68;58.48
68871;BME280;55906;52.278;6.808;2022-08-01T09:46:51;101698.16;;;24.51;57.03
68871;BME280;55906;52.278;6.808;2022-08-01T09:49:29;101704.00;;;24.76;57.03
68871;BME280;55906;52.278;6.808;2022-08-01T09:51:57;101700.13;;;24.89;57.92
68871;BME280;55906;52.278;6.808;2022-08-01T09:54:29;101710.88;;;24.91;56.16
68871;BME280;55906;52.278;6.808;2022-08-01T09:57:07;101705.41;;;24.96;54.54
68871;BME280;55906;52.278;6.808;2022-08-01T09:59:35;101708.56;;;24.70;55.24
68871;BME280;55906;52.278;6.808;2022-08-01T10:02:07;101714.75;;;24.76;55.99
68871;BME280;55906;52.278;6.808;2022-08-01T10:04:36;101716.31;;;24.88;53.55
68871;BME280;55906;52.278;6.808;2022-08-01T10:07:04;101716.22;;;24.93;53.78
68871;BME280;55906;52.278;6.808;2022-08-01T10:09:34;101706.44;;;25.33;53.51
68871;BME280;55906;52.278;6.808;2022-08-01T10:12:02;101704.19;;;25.53;52.27
68871;BME280;55906;52.278;6.808;2022-08-01T10:14:30;101701.09;;;25.72;52.22
68871;BME280;55906;52.278;6.808;2022-08-01T10:16:59;101706.16;;;26.23;51.29
68871;BME280;55906;52.278;6.808;2022-08-01T10:19:29;101704.91;;;26.37;50.88
68871;BME280;55906;52.278;6.808;2022-08-01T10:21:57;101699.22;;;26.81;49.33
68871;BME280;55906;52.278;6.808;2022-08-01T10:24:25;101704.53;;;27.16;49.67
68871;BME280;55906;52.278;6.808;2022-08-01T10:26:56;101705.00;;;27.61;47.12
68871;BME280;55906;52.278;6.808;2022-08-01T10:29:26;101705.34;;;28.07;48.36
68871;BME280;55906;52.278;6.808;2022-08-01T10:31:53;101704.75;;;28.25;47.75
68871;BME280;55906;52.278;6.808;2022-08-01T10:34:20;101697.13;;;28.62;42.20
68871;BME280;55906;52.278;6.808;2022-08-01T10:36:48;101695.94;;;28.96;45.59
68871;BME280;55906;52.278;6.808;2022-08-01T10:39:16;101705.50;;;29.06;45.70
68871;BME280;55906;52.278;6.808;2022-08-01T10:41:45;101712.72;;;30.21;41.32
68871;BME280;55906;52.278;6.808;2022-08-01T10:44:12;101714.13;;;30.72;41.70
68871;BME280;55906;52.278;6.808;2022-08-01T10:46:39;101714.13;;;30.92;41.33
68871;BME280;55906;52.278;6.808;2022-08-01T10:49:11;101714.25;;;31.30;38.84
68871;BME280;55906;52.278;6.808;2022-08-01T10:51:39;101713.44;;;31.28;39.32
68871;BME280;55906;52.278;6.808;2022-08-01T10:54:09;101716.00;;;31.10;39.03
68871;BME280;55906;52.278;6.808;2022-08-01T10:56:40;101711.00;;;31.22;38.28
68871;BME280;55906;52.278;6.808;2022-08-01T10:59:09;101709.41;;;31.16;38.93
68871;BME280;55906;52.278;6.808;2022-08-01T11:01:35;101712.31;;;31.11;38.89
68871;BME280;55906;52.278;6.808;2022-08-01T11:04:08;101707.31;;;31.02;36.84
68871;BME280;55906;52.278;6.808;2022-08-01T11:06:46;101716.31;;;31.43;36.41
68871;BME280;55906;52.278;6.808;2022-08-01T11:09:41;101715.81;;;31.15;32.43
68871;BME280;55906;52.278;6.808;2022-08-01T11:12:10;101716.81;;;31.33;34.87
68871;BME280;55906;52.278;6.808;2022-08-01T11:17:43;101707.56;;;31.56;35.84
68871;BME280;55906;52.278;6.808;2022-08-01T11:20:14;101711.47;;;31.88;34.50
68871;BME280;55906;52.278;6.808;2022-08-01T11:26:13;101713.59;;;32.17;32.47
68871;BME280;55906;52.278;6.808;2022-08-01T11:28:41;101707.56;;;32.46;34.35
68871;BME280;55906;52.278;6.808;2022-08-01T11:31:36;101712.44;;;33.09;32.32
68871;BME280;55906;52.278;6.808;2022-08-01T11:34:02;101711.22;;;33.15;33.09
68871;BME280;55906;52.278;6.808;2022-08-01T11:36:29;101707.16;;;33.55;32.56
68871;BME280;55906;52.278;6.808;2022-08-01T11:39:16;101707.44;;;33.50;31.37
68871;BME280;55906;52.278;6.808;2022-08-01T11:41:46;101699.41;;;33.47;32.38
68871;BME280;55906;52.278;6.808;2022-08-01T11:44:19;101703.97;;;33.95;31.55
68871;BME280;55906;52.278;6.808;2022-08-01T11:46:56;101698.41;;;34.43;30.09
68871;BME280;55906;52.278;6.808;2022-08-01T11:52:17;101697.91;;;34.80;30.12
68871;BME280;55906;52.278;6.808;2022-08-01T11:54:47;101701.75;;;34.48;30.78
68871;BME280;55906;52.278;6.808;2022-08-01T11:57:18;101702.69;;;34.17;30.40
68871;BME280;55906;52.278;6.808;2022-08-01T11:59:46;101704.31;;;33.89;31.55
68871;BME280;55906;52.278;6.808;2022-08-01T12:02:19;101706.63;;;33.81;31.36
68871;BME280;55906;52.278;6.808;2022-08-01T12:04:52;101711.34;;;32.96;31.68
68871;BME280;55906;52.278;6.808;2022-08-01T12:07:20;101718.19;;;32.87;32.06
68871;BME280;55906;52.278;6.808;2022-08-01T12:09:47;101710.88;;;33.21;31.73
68871;BME280;55906;52.278;6.808;2022-08-01T12:12:17;101712.25;;;33.45;30.63
68871;BME280;55906;52.278;6.808;2022-08-01T12:14:45;101715.75;;;32.98;31.10
68871;BME280;55906;52.278;6.808;2022-08-01T12:17:18;101715.91;;;32.95;31.60
68871;BME280;55906;52.278;6.808;2022-08-01T12:19:49;101711.22;;;33.48;30.62
68871;BME280;55906;52.278;6.808;2022-08-01T12:22:15;101711.47;;;33.43;30.89
68871;BME280;55906;52.278;6.808;2022-08-01T12:24:42;101708.66;;;33.60;30.91
68871;BME280;55906;52.278;6.808;2022-08-01T12:27:10;101711.34;;;33.93;30.34
68871;BME280;55906;52.278;6.808;2022-08-01T12:29:41;101710.91;;;34.01;29.35
68871;BME280;55906;52.278;6.808;2022-08-01T12:32:22;101711.75;;;33.70;29.36
68871;BME280;55906;52.278;6.808;2022-08-01T12:34:50;101719.22;;;33.66;30.65
68871;BME280;55906;52.278;6.808;2022-08-01T12:37:17;101723.22;;;33.28;30.97
68871;BME280;55906;52.278;6.808;2022-08-01T12:39:45;101727.75;;;33.45;30.85
68871;BME280;55906;52.278;6.808;2022-08-01T12:42:12;101717.69;;;33.29;30.90
68871;BME280;55906;52.278;6.808;2022-08-01T12:44:42;101724.56;;;33.03;30.30
68871;BME280;55906;52.278;6.808;2022-08-01T12:47:10;101718.19;;;32.87;30.40
68871;BME280;55906;52.278;6.808;2022-08-01T12:49:38;101714.91;;;33.14;30.45
68871;BME280;55906;52.278;6.808;2022-08-01T12:52:06;101726.00;;;33.59;30.08
68871;BME280;55906;52.278;6.808;2022-08-01T12:55:00;101724.00;;;33.79;28.59
68871;BME280;55906;52.278;6.808;2022-08-01T12:57:27;101724.34;;;33.72;30.13
68871;BME280;55906;52.278;6.808;2022-08-01T13:00:09;101725.75;;;33.48;29.60
68871;BME280;55906;52.278;6.808;2022-08-01T13:02:37;101727.50;;;33.81;29.72
68871;BME280;55906;52.278;6.808;2022-08-01T13:05:05;101730.84;;;33.54;29.92
68871;BME280;55906;52.278;6.808;2022-08-01T13:07:42;101724.50;;;33.38;29.63
68871;BME280;55906;52.278;6.808;2022-08-01T13:10:10;101720.38;;;33.47;30.45
68871;BME280;55906;52.278;6.808;2022-08-01T13:12:38;101720.63;;;33.58;29.75